sensor_id;sensor_type;location;lat;lon;timestamp;P1;durP1;ratioP1;P2;durP2;ratioP2
20749;SDS011;10535;50.664;4.564;2022-10-28T00:01:21;5.83;;;2.83;;
20749;SDS011;10535;50.664;4.564;2022-10-28T00:03:52;8.27;;;2.93;;
20749;SDS011;10535;50.664;4.564;2022-10-28T00:06:23;15.30;;;3.47;;
20749;SDS011;10535;50.664;4.564;2022-10-28T00:08:54;11.00;;;3.90;;
20749;SDS011;10535;50.664;4.564;2022-10-28T00:11:24;8.80;;;3.27;;
20749;SDS011;10535;50.664;4.564;2022-10-28T00:13:55;11.77;;;3.37;;
20749;SDS011;10535;50.664;4.564;2022-10-28T00:16:23;4.70;;;2.90;;
20749;SDS011;10535;50.664;4.564;2022-10-28T00:18:51;18.10;;;2.93;;
20749;SDS011;10535;50.664;4.564;2022-10-28T00:21:18;8.00;;;2.83;;
20749;SDS011;10535;50.664;4.564;2022-10-28T00:23:46;5.90;;;2.67;;
20749;SDS011;10535;50.664;4.564;2022-10-28T00:26:13;7.63;;;3.07;;
20749;SDS011;10535;50.664;4.564;2022-10-28T00:28:50;5.20;;;2.70;;
20749;SDS011;10535;50.664;4.564;2022-10-28T00:31:18;7.67;;;2.90;;
20749;SDS011;10535;50.664;4.564;2022-10-28T00:33:45;6.07;;;3.27;;
20749;SDS011;10535;50.664;4.564;2022-10-28T00:36:24;12.93;;;3.17;;
20749;SDS011;10535;50.664;4.564;2022-10-28T00:38:53;4.33;;;2.80;;
20749;SDS011;10535;50.664;4.564;2022-10-28T00:41:21;5.40;;;2.70;;
20749;SDS011;10535;50.664;4.564;2022-10-28T00:43:52;8.93;;;3.17;;
20749;SDS011;10535;50.664;4.564;2022-10-28T00:46:23;5.87;;;3.50;;
20749;SDS011;10535;50.664;4.564;2022-10-28T00:49:14;6.23;;;3.37;;
20749;SDS011;10535;50.664;4.564;2022-10-28T00:51:49;8.10;;;3.23;;
20749;SDS011;10535;50.664;4.564;2022-10-28T00:54:17;6.00;;;2.60;;
20749;SDS011;10535;50.664;4.564;2022-10-28T00:56:45;7.33;;;3.27;;
20749;SDS011;10535;50.664;4.564;2022-10-28T00:59:19;9.13;;;3.83;;
20749;SDS011;10535;50.664;4.564;2022-10-28T01:01:48;10.93;;;3.47;;
20749;SDS011;10535;50.664;4.564;2022-10-28T01:04:14;8.13;;;3.00;;
20749;SDS011;10535;50.664;4.564;2022-10-28T01:06:41;15.17;;;3.13;;
20749;SDS011;10535;50.664;4.564;2022-10-28T01:09:07;12.50;;;3.43;;
20749;SDS011;10535;50.664;4.564;2022-10-28T01:26:22;7.87;;;2.73;;
20749;SDS011;10535;50.664;4.564;2022-10-28T01:45:27;8.70;;;3.37;;
20749;SDS011;10535;50.664;4.564;2022-10-28T01:48:05;9.87;;;3.77;;
20749;SDS011;10535;50.664;4.564;2022-10-28T01:50:40;9.73;;;3.27;;
20749;SDS011;10535;50.664;4.564;2022-10-28T01:53:09;7.73;;;3.10;;
20749;SDS011;10535;50.664;4.564;2022-10-28T01:55:39;7.93;;;3.40;;
20749;SDS011;10535;50.664;4.564;2022-10-28T01:58:07;6.57;;;3.73;;
20749;SDS011;10535;50.664;4.564;2022-10-28T02:00:35;9.33;;;3.20;;
20749;SDS011;10535;50.664;4.564;2022-10-28T02:03:01;18.23;;;4.13;;
20749;SDS011;10535;50.664;4.564;2022-10-28T02:05:35;10.57;;;3.90;;
20749;SDS011;10535;50.664;4.564;2022-10-28T02:08:10;8.77;;;3.60;;
20749;SDS011;10535;50.664;4.564;2022-10-28T02:10:46;6.43;;;3.47;;
20749;SDS011;10535;50.664;4.564;2022-10-28T02:13:14;9.03;;;3.70;;
20749;SDS011;10535;50.664;4.564;2022-10-28T02:15:45;9.67;;;3.77;;
20749;SDS011;10535;50.664;4.564;2022-10-28T02:18:35;7.77;;;3.30;;
20749;SDS011;10535;50.664;4.564;2022-10-28T02:21:23;13.70;;;3.57;;
20749;SDS011;10535;50.664;4.564;2022-10-28T02:23:56;9.30;;;3.53;;
20749;SDS011;10535;50.664;4.564;2022-10-28T02:26:51;8.97;;;3.60;;
20749;SDS011;10535;50.664;4.564;2022-10-28T02:29:27;13.33;;;4.47;;
20749;SDS011;10535;50.664;4.564;2022-10-28T02:31:58;13.70;;;4.30;;
20749;SDS011;10535;50.664;4.564;2022-10-28T02:34:30;15.17;;;3.47;;
20749;SDS011;10535;50.664;4.564;2022-10-28T02:37:00;8.60;;;3.30;;
20749;SDS011;10535;50.664;4.564;2022-10-28T02:39:37;11.07;;;3.90;;
20749;SDS011;10535;50.664;4.564;2022-10-28T02:42:13;9.50;;;3.73;;
20749;SDS011;10535;50.664;4.564;2022-10-28T02:44:58;8.47;;;3.73;;
20749;SDS011;10535;50.664;4.564;2022-10-28T02:47:33;5.60;;;3.27;;
20749;SDS011;10535;50.664;4.564;2022-10-28T02:50:03;10.47;;;3.83;;
20749;SDS011;10535;50.664;4.564;2022-10-28T02:52:33;7.67;;;3.20;;
20749;SDS011;10535;50.664;4.564;2022-10-28T02:55:04;15.67;;;4.10;;
20749;SDS011;10535;50.664;4.564;2022-10-28T02:57:37;11.67;;;3.50;;
20749;SDS011;10535;50.664;4.564;2022-10-28T03:00:07;6.60;;;3.37;;
20749;SDS011;10535;50.664;4.564;2022-10-28T03:02:34;5.57;;;3.23;;
20749;SDS011;10535;50.664;4.564;2022-10-28T03:05:01;7.10;;;2.97;;
20749;SDS011;10535;50.664;4.564;2022-10-28T03:07:28;7.57;;;3.10;;
20749;SDS011;10535;50.664;4.564;2022-10-28T03:09:53;11.37;;;3.90;;
20749;SDS011;10535;50.664;4.564;2022-10-28T03:12:19;8.40;;;3.70;;
20749;SDS011;10535;50.664;4.564;2022-10-28T03:14:45;11.87;;;4.13;;
20749;SDS011;10535;50.664;4.564;2022-10-28T03:17:10;6.43;;;3.50;;
20749;SDS011;10535;50.664;4.564;2022-10-28T03:19:36;13.10;;;3.50;;
20749;SDS011;10535;50.664;4.564;2022-10-28T03:22:01;7.30;;;3.13;;
20749;SDS011;10535;50.664;4.564;2022-10-28T03:24:27;7.00;;;3.07;;
20749;SDS011;10535;50.664;4.564;2022-10-28T03:26:52;7.17;;;3.47;;
20749;SDS011;10535;50.664;4.564;2022-10-28T03:29:18;7.67;;;3.47;;
20749;SDS011;10535;50.664;4.564;2022-10-28T03:31:44;7.53;;;3.10;;
20749;SDS011;10535;50.664;4.564;2022-10-28T03:34:09;13.33;;;4.10;;
20749;SDS011;10535;50.664;4.564;2022-10-28T03:36:35;8.97;;;3.37;;
20749;SDS011;10535;50.664;4.564;2022-10-28T03:39:00;13.83;;;3.57;;
20749;SDS011;10535;50.664;4.564;2022-10-28T03:41:26;8.00;;;2.73;;
20749;SDS011;10535;50.664;4.564;2022-10-28T03:43:51;7.60;;;3.00;;
20749;SDS011;10535;50.664;4.564;2022-10-28T03:46:17;5.13;;;2.93;;
20749;SDS011;10535;50.664;4.564;2022-10-28T03:48:43;6.87;;;3.10;;
20749;SDS011;10535;50.664;4.564;2022-10-28T03:51:08;9.53;;;3.63;;
20749;SDS011;10535;50.664;4.564;2022-10-28T03:53:34;11.93;;;3.17;;
20749;SDS011;10535;50.664;4.564;2022-10-28T03:56:00;7.63;;;2.90;;
20749;SDS011;10535;50.664;4.564;2022-10-28T03:58:26;12.30;;;3.43;;
20749;SDS011;10535;50.664;4.564;2022-10-28T04:00:53;4.70;;;2.93;;
20749;SDS011;10535;50.664;4.564;2022-10-28T04:03:20;7.37;;;3.03;;
20749;SDS011;10535;50.664;4.564;2022-10-28T04:05:47;13.20;;;3.93;;
20749;SDS011;10535;50.664;4.564;2022-10-28T04:08:13;9.80;;;3.37;;
20749;SDS011;10535;50.664;4.564;2022-10-28T04:10:39;5.57;;;3.27;;
20749;SDS011;10535;50.664;4.564;2022-10-28T04:13:05;9.93;;;3.80;;
20749;SDS011;10535;50.664;4.564;2022-10-28T04:15:31;4.50;;;3.00;;
20749;SDS011;10535;50.664;4.564;2022-10-28T04:17:56;9.60;;;3.63;;
20749;SDS011;10535;50.664;4.564;2022-10-28T04:20:22;9.03;;;3.53;;
20749;SDS011;10535;50.664;4.564;2022-10-28T04:22:49;10.43;;;3.60;;
20749;SDS011;10535;50.664;4.564;2022-10-28T04:25:15;13.73;;;3.73;;
20749;SDS011;10535;50.664;4.564;2022-10-28T04:27:42;7.60;;;3.63;;
20749;SDS011;10535;50.664;4.564;2022-10-28T04:30:08;4.93;;;3.03;;
20749;SDS011;10535;50.664;4.564;2022-10-28T04:32:36;10.93;;;3.63;;
20749;SDS011;10535;50.664;4.564;2022-10-28T04:35:01;10.60;;;3.93;;
20749;SDS011;10535;50.664;4.564;2022-10-28T04:37:27;9.67;;;3.17;;
20749;SDS011;10535;50.664;4.564;2022-10-28T04:39:53;14.07;;;4.03;;
20749;SDS011;10535;50.664;4.564;2022-10-28T04:42:18;9.80;;;3.70;;
20749;SDS011;10535;50.664;4.564;2022-10-28T04:44:44;9.57;;;4.00;;
20749;SDS011;10535;50.664;4.564;2022-10-28T04:47:09;6.03;;;3.40;;
20749;SDS011;10535;50.664;4.564;2022-10-28T04:49:35;8.53;;;3.30;;
20749;SDS011;10535;50.664;4.564;2022-10-28T04:52:00;12.63;;;4.20;;
20749;SDS011;10535;50.664;4.564;2022-10-28T04:54:26;7.23;;;3.33;;
20749;SDS011;10535;50.664;4.564;2022-10-28T04:56:52;9.17;;;3.47;;
20749;SDS011;10535;50.664;4.564;2022-10-28T04:59:18;7.80;;;3.70;;
20749;SDS011;10535;50.664;4.564;2022-10-28T05:01:44;9.53;;;3.30;;
20749;SDS011;10535;50.664;4.564;2022-10-28T05:04:09;10.00;;;3.77;;
20749;SDS011;10535;50.664;4.564;2022-10-28T05:06:35;6.87;;;3.07;;
20749;SDS011;10535;50.664;4.564;2022-10-28T05:09:01;6.10;;;2.77;;
20749;SDS011;10535;50.664;4.564;2022-10-28T05:11:26;11.53;;;3.80;;
20749;SDS011;10535;50.664;4.564;2022-10-28T05:13:52;8.90;;;3.80;;
20749;SDS011;10535;50.664;4.564;2022-10-28T05:16:18;11.97;;;3.73;;
20749;SDS011;10535;50.664;4.564;2022-10-28T05:18:43;9.43;;;2.90;;
20749;SDS011;10535;50.664;4.564;2022-10-28T05:21:09;11.60;;;2.90;;
20749;SDS011;10535;50.664;4.564;2022-10-28T05:23:34;6.47;;;3.20;;
20749;SDS011;10535;50.664;4.564;2022-10-28T05:26:00;8.83;;;3.43;;
20749;SDS011;10535;50.664;4.564;2022-10-28T05:28:26;9.17;;;4.00;;
20749;SDS011;10535;50.664;4.564;2022-10-28T05:30:51;6.43;;;3.27;;
20749;SDS011;10535;50.664;4.564;2022-10-28T05:33:17;9.23;;;3.67;;
20749;SDS011;10535;50.664;4.564;2022-10-28T05:35:43;7.17;;;3.50;;
20749;SDS011;10535;50.664;4.564;2022-10-28T05:38:08;10.70;;;3.87;;
20749;SDS011;10535;50.664;4.564;2022-10-28T05:40:34;8.47;;;3.23;;
20749;SDS011;10535;50.664;4.564;2022-10-28T05:43:00;8.07;;;3.43;;
20749;SDS011;10535;50.664;4.564;2022-10-28T05:45:26;11.60;;;3.90;;
20749;SDS011;10535;50.664;4.564;2022-10-28T05:47:52;9.63;;;3.53;;
20749;SDS011;10535;50.664;4.564;2022-10-28T05:50:18;7.60;;;3.87;;
20749;SDS011;10535;50.664;4.564;2022-10-28T05:52:54;8.53;;;3.30;;
20749;SDS011;10535;50.664;4.564;2022-10-28T05:55:22;6.23;;;3.57;;
20749;SDS011;10535;50.664;4.564;2022-10-28T05:57:49;7.23;;;3.07;;
20749;SDS011;10535;50.664;4.564;2022-10-28T06:00:17;4.90;;;2.90;;
20749;SDS011;10535;50.664;4.564;2022-10-28T06:02:45;10.57;;;3.30;;
20749;SDS011;10535;50.664;4.564;2022-10-28T06:05:10;10.57;;;3.67;;
20749;SDS011;10535;50.664;4.564;2022-10-28T06:07:37;9.50;;;4.17;;
20749;SDS011;10535;50.664;4.564;2022-10-28T06:10:04;11.63;;;3.60;;
20749;SDS011;10535;50.664;4.564;2022-10-28T06:12:31;11.53;;;3.90;;
20749;SDS011;10535;50.664;4.564;2022-10-28T06:14:56;12.40;;;3.80;;
20749;SDS011;10535;50.664;4.564;2022-10-28T06:17:22;11.73;;;4.07;;
20749;SDS011;10535;50.664;4.564;2022-10-28T06:19:48;9.00;;;4.00;;
20749;SDS011;10535;50.664;4.564;2022-10-28T06:22:13;9.87;;;3.87;;
20749;SDS011;10535;50.664;4.564;2022-10-28T06:24:39;13.97;;;4.40;;
20749;SDS011;10535;50.664;4.564;2022-10-28T06:27:05;11.60;;;4.40;;
20749;SDS011;10535;50.664;4.564;2022-10-28T06:29:31;11.97;;;3.53;;
20749;SDS011;10535;50.664;4.564;2022-10-28T06:31:59;9.53;;;4.07;;
20749;SDS011;10535;50.664;4.564;2022-10-28T06:34:24;13.37;;;4.33;;
20749;SDS011;10535;50.664;4.564;2022-10-28T06:36:50;9.23;;;4.07;;
20749;SDS011;10535;50.664;4.564;2022-10-28T06:39:16;10.20;;;3.23;;
20749;SDS011;10535;50.664;4.564;2022-10-28T06:41:41;10.83;;;3.50;;
20749;SDS011;10535;50.664;4.564;2022-10-28T06:44:07;4.87;;;3.07;;
20749;SDS011;10535;50.664;4.564;2022-10-28T06:46:34;12.90;;;3.17;;
20749;SDS011;10535;50.664;4.564;2022-10-28T06:49:00;15.97;;;4.43;;
20749;SDS011;10535;50.664;4.564;2022-10-28T06:51:27;12.73;;;3.97;;
20749;SDS011;10535;50.664;4.564;2022-10-28T06:53:54;15.27;;;3.93;;
20749;SDS011;10535;50.664;4.564;2022-10-28T06:56:20;10.67;;;3.70;;
20749;SDS011;10535;50.664;4.564;2022-10-28T06:58:49;17.13;;;4.57;;
20749;SDS011;10535;50.664;4.564;2022-10-28T07:01:16;23.23;;;6.10;;
20749;SDS011;10535;50.664;4.564;2022-10-28T07:03:42;17.67;;;6.50;;
20749;SDS011;10535;50.664;4.564;2022-10-28T07:06:07;18.97;;;6.00;;
20749;SDS011;10535;50.664;4.564;2022-10-28T07:08:34;16.67;;;4.50;;
20749;SDS011;10535;50.664;4.564;2022-10-28T07:10:59;11.77;;;4.17;;
20749;SDS011;10535;50.664;4.564;2022-10-28T07:13:26;9.07;;;3.97;;
20749;SDS011;10535;50.664;4.564;2022-10-28T07:15:53;6.80;;;3.70;;
20749;SDS011;10535;50.664;4.564;2022-10-28T07:18:21;8.33;;;4.10;;
20749;SDS011;10535;50.664;4.564;2022-10-28T07:20:48;8.50;;;3.53;;
20749;SDS011;10535;50.664;4.564;2022-10-28T07:23:13;13.13;;;4.47;;
20749;SDS011;10535;50.664;4.564;2022-10-28T07:25:40;8.90;;;3.80;;
20749;SDS011;10535;50.664;4.564;2022-10-28T07:28:05;8.30;;;4.10;;
20749;SDS011;10535;50.664;4.564;2022-10-28T07:30:31;12.80;;;4.27;;
20749;SDS011;10535;50.664;4.564;2022-10-28T07:32:58;11.87;;;4.33;;
20749;SDS011;10535;50.664;4.564;2022-10-28T07:35:25;13.53;;;3.60;;
20749;SDS011;10535;50.664;4.564;2022-10-28T07:37:51;12.30;;;3.70;;
20749;SDS011;10535;50.664;4.564;2022-10-28T07:40:18;8.23;;;3.93;;
20749;SDS011;10535;50.664;4.564;2022-10-28T07:42:45;9.70;;;3.90;;
20749;SDS011;10535;50.664;4.564;2022-10-28T07:45:10;11.23;;;4.17;;
20749;SDS011;10535;50.664;4.564;2022-10-28T07:47:36;7.57;;;3.90;;
20749;SDS011;10535;50.664;4.564;2022-10-28T07:50:02;9.00;;;3.93;;
20749;SDS011;10535;50.664;4.564;2022-10-28T07:52:29;10.10;;;3.60;;
20749;SDS011;10535;50.664;4.564;2022-10-28T07:54:55;14.80;;;4.63;;
20749;SDS011;10535;50.664;4.564;2022-10-28T07:57:20;20.17;;;5.60;;
20749;SDS011;10535;50.664;4.564;2022-10-28T07:59:46;16.33;;;6.20;;
20749;SDS011;10535;50.664;4.564;2022-10-28T08:02:18;15.63;;;4.80;;
20749;SDS011;10535;50.664;4.564;2022-10-28T08:04:47;13.50;;;4.63;;
20749;SDS011;10535;50.664;4.564;2022-10-28T08:07:13;8.03;;;3.83;;
20749;SDS011;10535;50.664;4.564;2022-10-28T08:09:42;9.30;;;3.47;;
20749;SDS011;10535;50.664;4.564;2022-10-28T08:12:07;7.87;;;3.33;;
20749;SDS011;10535;50.664;4.564;2022-10-28T08:14:36;8.60;;;4.13;;
20749;SDS011;10535;50.664;4.564;2022-10-28T08:17:03;12.20;;;3.37;;
20749;SDS011;10535;50.664;4.564;2022-10-28T08:19:29;11.90;;;3.40;;
20749;SDS011;10535;50.664;4.564;2022-10-28T08:21:59;11.20;;;3.87;;
20749;SDS011;10535;50.664;4.564;2022-10-28T08:24:26;7.83;;;3.90;;
20749;SDS011;10535;50.664;4.564;2022-10-28T08:26:52;13.70;;;4.43;;
20749;SDS011;10535;50.664;4.564;2022-10-28T08:29:18;15.70;;;4.20;;
20749;SDS011;10535;50.664;4.564;2022-10-28T08:31:43;13.67;;;4.50;;
20749;SDS011;10535;50.664;4.564;2022-10-28T08:34:09;25.00;;;6.80;;
20749;SDS011;10535;50.664;4.564;2022-10-28T08:36:38;22.57;;;6.47;;
20749;SDS011;10535;50.664;4.564;2022-10-28T08:39:04;17.97;;;6.30;;
20749;SDS011;10535;50.664;4.564;2022-10-28T08:41:37;20.13;;;5.77;;
20749;SDS011;10535;50.664;4.564;2022-10-28T08:47:22;16.83;;;5.93;;
20749;SDS011;10535;50.664;4.564;2022-10-28T08:50:21;17.57;;;5.43;;
20749;SDS011;10535;50.664;4.564;2022-10-28T08:55:49;11.53;;;4.20;;
20749;SDS011;10535;50.664;4.564;2022-10-28T08:58:27;8.57;;;3.60;;
20749;SDS011;10535;50.664;4.564;2022-10-28T09:00:57;9.77;;;3.50;;
20749;SDS011;10535;50.664;4.564;2022-10-28T09:03:30;15.70;;;4.13;;
20749;SDS011;10535;50.664;4.564;2022-10-28T09:06:04;10.57;;;3.60;;
20749;SDS011;10535;50.664;4.564;2022-10-28T09:08:38;8.70;;;3.10;;
20749;SDS011;10535;50.664;4.564;2022-10-28T09:16:35;10.50;;;3.10;;
20749;SDS011;10535;50.664;4.564;2022-10-28T09:19:20;9.43;;;3.50;;
20749;SDS011;10535;50.664;4.564;2022-10-28T09:21:56;6.57;;;2.60;;
20749;SDS011;10535;50.664;4.564;2022-10-28T09:29:59;10.80;;;3.73;;
20749;SDS011;10535;50.664;4.564;2022-10-28T09:35:27;7.10;;;2.70;;
20749;SDS011;10535;50.664;4.564;2022-10-28T09:40:36;11.73;;;3.63;;
20749;SDS011;10535;50.664;4.564;2022-10-28T09:43:08;7.13;;;2.83;;
20749;SDS011;10535;50.664;4.564;2022-10-28T09:45:46;5.97;;;2.70;;
20749;SDS011;10535;50.664;4.564;2022-10-28T09:48:28;9.13;;;2.90;;
20749;SDS011;10535;50.664;4.564;2022-10-28T09:50:59;12.67;;;3.00;;
20749;SDS011;10535;50.664;4.564;2022-10-28T09:56:08;10.33;;;3.07;;
20749;SDS011;10535;50.664;4.564;2022-10-28T09:58:34;11.67;;;2.87;;
20749;SDS011;10535;50.664;4.564;2022-10-28T10:01:00;7.60;;;2.90;;
20749;SDS011;10535;50.664;4.564;2022-10-28T10:03:26;5.43;;;2.70;;
20749;SDS011;10535;50.664;4.564;2022-10-28T10:05:53;8.50;;;2.47;;
20749;SDS011;10535;50.664;4.564;2022-10-28T10:08:22;6.73;;;2.50;;
20749;SDS011;10535;50.664;4.564;2022-10-28T10:13:24;12.03;;;3.20;;
20749;SDS011;10535;50.664;4.564;2022-10-28T10:15:54;13.10;;;3.27;;
20749;SDS011;10535;50.664;4.564;2022-10-28T10:18:25;10.17;;;2.60;;
20749;SDS011;10535;50.664;4.564;2022-10-28T10:20:57;5.43;;;2.40;;
20749;SDS011;10535;50.664;4.564;2022-10-28T10:26:32;9.97;;;3.17;;
20749;SDS011;10535;50.664;4.564;2022-10-28T10:28:57;7.07;;;2.15;;
20749;SDS011;10535;50.664;4.564;2022-10-28T10:31:27;5.87;;;2.30;;
20749;SDS011;10535;50.664;4.564;2022-10-28T10:33:56;12.83;;;3.40;;
20749;SDS011;10535;50.664;4.564;2022-10-28T10:36:23;9.40;;;2.23;;
20749;SDS011;10535;50.664;4.564;2022-10-28T10:38:55;8.67;;;2.20;;
20749;SDS011;10535;50.664;4.564;2022-10-28T10:41:36;5.97;;;2.20;;
20749;SDS011;10535;50.664;4.564;2022-10-28T10:44:24;11.00;;;2.77;;
20749;SDS011;10535;50.664;4.564;2022-10-28T10:49:19;4.43;;;2.40;;
20749;SDS011;10535;50.664;4.564;2022-10-28T10:51:49;10.07;;;2.80;;
20749;SDS011;10535;50.664;4.564;2022-10-28T10:54:21;10.10;;;2.93;;
20749;SDS011;10535;50.664;4.564;2022-10-28T10:56:47;6.10;;;2.43;;
20749;SDS011;10535;50.664;4.564;2022-10-28T10:59:26;7.90;;;3.00;;
20749;SDS011;10535;50.664;4.564;2022-10-28T11:01:55;7.73;;;2.77;;
20749;SDS011;10535;50.664;4.564;2022-10-28T11:04:23;6.33;;;3.13;;
20749;SDS011;10535;50.664;4.564;2022-10-28T11:06:55;8.43;;;2.33;;
20749;SDS011;10535;50.664;4.564;2022-10-28T11:11:50;8.93;;;2.77;;
20749;SDS011;10535;50.664;4.564;2022-10-28T11:14:21;6.03;;;2.10;;
20749;SDS011;10535;50.664;4.564;2022-10-28T11:17:00;9.23;;;2.38;;
20749;SDS011;10535;50.664;4.564;2022-10-28T11:19:36;5.13;;;2.43;;
20749;SDS011;10535;50.664;4.564;2022-10-28T11:22:20;10.45;;;2.40;;
20749;SDS011;10535;50.664;4.564;2022-10-28T11:30:24;8.57;;;2.20;;
20749;SDS011;10535;50.664;4.564;2022-10-28T11:33:11;16.55;;;2.60;;
20749;SDS011;10535;50.664;4.564;2022-10-28T11:35:58;6.22;;;2.33;;
20749;SDS011;10535;50.664;4.564;2022-10-28T11:38:56;9.40;;;2.90;;
20749;SDS011;10535;50.664;4.564;2022-10-28T11:41:50;5.82;;;2.47;;
20749;SDS011;10535;50.664;4.564;2022-10-28T11:44:48;6.68;;;2.67;;
20749;SDS011;10535;50.664;4.564;2022-10-28T11:47:36;5.93;;;2.88;;
20749;SDS011;10535;50.664;4.564;2022-10-28T11:53:11;8.32;;;2.20;;
20749;SDS011;10535;50.664;4.564;2022-10-28T11:58:59;13.93;;;2.88;;
20749;SDS011;10535;50.664;4.564;2022-10-28T12:01:53;9.60;;;3.35;;
20749;SDS011;10535;50.664;4.564;2022-10-28T12:07:45;12.32;;;2.63;;
20749;SDS011;10535;50.664;4.564;2022-10-28T12:10:29;11.73;;;3.33;;
20749;SDS011;10535;50.664;4.564;2022-10-28T12:13:30;9.52;;;2.55;;
20749;SDS011;10535;50.664;4.564;2022-10-28T12:24:08;11.57;;;2.55;;
20749;SDS011;10535;50.664;4.564;2022-10-28T12:29:12;6.25;;;2.65;;
20749;SDS011;10535;50.664;4.564;2022-10-28T12:32:05;7.15;;;2.97;;
20749;SDS011;10535;50.664;4.564;2022-10-28T12:34:34;9.80;;;2.87;;
20749;SDS011;10535;50.664;4.564;2022-10-28T12:37:23;7.50;;;2.60;;
20749;SDS011;10535;50.664;4.564;2022-10-28T12:42:21;8.75;;;2.35;;
20749;SDS011;10535;50.664;4.564;2022-10-28T12:44:51;7.07;;;2.85;;
20749;SDS011;10535;50.664;4.564;2022-10-28T12:50:11;8.52;;;2.20;;
20749;SDS011;10535;50.664;4.564;2022-10-28T12:52:53;7.75;;;2.50;;
20749;SDS011;10535;50.664;4.564;2022-10-28T12:55:29;10.13;;;2.55;;
20749;SDS011;10535;50.664;4.564;2022-10-28T12:58:17;9.40;;;2.78;;
20749;SDS011;10535;50.664;4.564;2022-10-28T13:00:54;12.73;;;2.85;;
20749;SDS011;10535;50.664;4.564;2022-10-28T13:03:24;7.25;;;2.30;;
20749;SDS011;10535;50.664;4.564;2022-10-28T13:17:12;6.97;;;2.50;;
20749;SDS011;10535;50.664;4.564;2022-10-28T13:28:02;5.13;;;2.25;;
20749;SDS011;10535;50.664;4.564;2022-10-28T13:30:28;10.70;;;2.78;;
20749;SDS011;10535;50.664;4.564;2022-10-28T13:33:03;11.20;;;2.80;;
20749;SDS011;10535;50.664;4.564;2022-10-28T13:35:32;11.27;;;2.92;;
20749;SDS011;10535;50.664;4.564;2022-10-28T13:37:58;5.80;;;2.28;;
20749;SDS011;10535;50.664;4.564;2022-10-28T13:42:54;7.82;;;2.50;;
20749;SDS011;10535;50.664;4.564;2022-10-28T13:53:51;11.25;;;2.33;;
20749;SDS011;10535;50.664;4.564;2022-10-28T13:58:53;6.68;;;2.35;;
20749;SDS011;10535;50.664;4.564;2022-10-28T14:04:13;8.55;;;2.45;;
20749;SDS011;10535;50.664;4.564;2022-10-28T14:07:24;10.98;;;3.10;;
20749;SDS011;10535;50.664;4.564;2022-10-28T14:09:52;6.85;;;2.58;;
20749;SDS011;10535;50.664;4.564;2022-10-28T14:12:31;8.35;;;2.67;;
20749;SDS011;10535;50.664;4.564;2022-10-28T14:17:39;7.55;;;2.88;;
20749;SDS011;10535;50.664;4.564;2022-10-28T14:22:55;12.52;;;2.20;;
20749;SDS011;10535;50.664;4.564;2022-10-28T14:38:55;8.73;;;2.70;;
20749;SDS011;10535;50.664;4.564;2022-10-28T14:50:00;6.77;;;2.27;;
20749;SDS011;10535;50.664;4.564;2022-10-28T14:52:38;9.43;;;2.80;;
20749;SDS011;10535;50.664;4.564;2022-10-28T14:55:06;7.63;;;2.40;;
20749;SDS011;10535;50.664;4.564;2022-10-28T14:57:43;13.27;;;3.07;;
20749;SDS011;10535;50.664;4.564;2022-10-28T15:00:14;7.13;;;2.23;;
20749;SDS011;10535;50.664;4.564;2022-10-28T15:02:43;7.43;;;2.92;;
20749;SDS011;10535;50.664;4.564;2022-10-28T15:05:13;15.67;;;3.83;;
20749;SDS011;10535;50.664;4.564;2022-10-28T15:07:42;9.40;;;2.43;;
20749;SDS011;10535;50.664;4.564;2022-10-28T15:10:14;9.37;;;3.17;;
20749;SDS011;10535;50.664;4.564;2022-10-28T15:12:52;6.27;;;2.47;;
20749;SDS011;10535;50.664;4.564;2022-10-28T15:17:44;6.50;;;2.67;;
20749;SDS011;10535;50.664;4.564;2022-10-28T15:22:50;7.43;;;2.33;;
20749;SDS011;10535;50.664;4.564;2022-10-28T15:25:18;13.07;;;3.70;;
20749;SDS011;10535;50.664;4.564;2022-10-28T15:27:45;15.43;;;3.03;;
20749;SDS011;10535;50.664;4.564;2022-10-28T15:30:21;10.97;;;3.30;;
20749;SDS011;10535;50.664;4.564;2022-10-28T15:32:49;5.47;;;2.30;;
20749;SDS011;10535;50.664;4.564;2022-10-28T15:37:54;9.87;;;3.00;;
20749;SDS011;10535;50.664;4.564;2022-10-28T15:40:27;7.60;;;3.20;;
20749;SDS011;10535;50.664;4.564;2022-10-28T15:43:01;11.00;;;3.03;;
20749;SDS011;10535;50.664;4.564;2022-10-28T15:45:32;4.23;;;2.33;;
20749;SDS011;10535;50.664;4.564;2022-10-28T15:47:59;9.93;;;2.97;;
20749;SDS011;10535;50.664;4.564;2022-10-28T15:50:32;9.30;;;2.80;;
20749;SDS011;10535;50.664;4.564;2022-10-28T15:55:34;9.80;;;3.03;;
20749;SDS011;10535;50.664;4.564;2022-10-28T15:58:01;7.73;;;3.37;;
20749;SDS011;10535;50.664;4.564;2022-10-28T16:00:53;11.20;;;3.80;;
20749;SDS011;10535;50.664;4.564;2022-10-28T16:03:24;9.93;;;3.07;;
20749;SDS011;10535;50.664;4.564;2022-10-28T16:05:50;9.10;;;3.43;;
20749;SDS011;10535;50.664;4.564;2022-10-28T16:08:23;7.67;;;2.93;;
20749;SDS011;10535;50.664;4.564;2022-10-28T16:10:54;8.47;;;3.20;;
20749;SDS011;10535;50.664;4.564;2022-10-28T16:18:27;11.00;;;2.93;;
20749;SDS011;10535;50.664;4.564;2022-10-28T16:20:55;16.13;;;3.77;;
20749;SDS011;10535;50.664;4.564;2022-10-28T16:23:23;10.27;;;3.60;;
20749;SDS011;10535;50.664;4.564;2022-10-28T16:25:53;9.87;;;3.63;;
20749;SDS011;10535;50.664;4.564;2022-10-28T16:28:19;7.60;;;3.10;;
20749;SDS011;10535;50.664;4.564;2022-10-28T16:30:52;8.70;;;3.60;;
20749;SDS011;10535;50.664;4.564;2022-10-28T16:33:21;10.67;;;2.80;;
20749;SDS011;10535;50.664;4.564;2022-10-28T16:36:00;7.40;;;2.90;;
20749;SDS011;10535;50.664;4.564;2022-10-28T16:38:28;8.93;;;3.67;;
20749;SDS011;10535;50.664;4.564;2022-10-28T16:40:55;12.83;;;3.40;;
20749;SDS011;10535;50.664;4.564;2022-10-28T16:43:22;8.20;;;3.60;;
20749;SDS011;10535;50.664;4.564;2022-10-28T16:45:50;8.23;;;3.33;;
20749;SDS011;10535;50.664;4.564;2022-10-28T16:48:17;13.07;;;3.43;;
20749;SDS011;10535;50.664;4.564;2022-10-28T16:50:54;9.57;;;3.93;;
20749;SDS011;10535;50.664;4.564;2022-10-28T16:53:21;16.40;;;5.63;;
20749;SDS011;10535;50.664;4.564;2022-10-28T16:55:47;9.30;;;3.80;;
20749;SDS011;10535;50.664;4.564;2022-10-28T16:58:13;11.87;;;4.00;;
20749;SDS011;10535;50.664;4.564;2022-10-28T17:00:39;8.23;;;3.73;;
20749;SDS011;10535;50.664;4.564;2022-10-28T17:03:05;13.03;;;4.27;;
20749;SDS011;10535;50.664;4.564;2022-10-28T17:05:34;9.07;;;4.60;;
20749;SDS011;10535;50.664;4.564;2022-10-28T17:07:59;15.27;;;5.27;;
20749;SDS011;10535;50.664;4.564;2022-10-28T17:10:25;14.37;;;4.90;;
20749;SDS011;10535;50.664;4.564;2022-10-28T17:12:52;10.30;;;4.17;;
20749;SDS011;10535;50.664;4.564;2022-10-28T17:15:19;8.60;;;3.57;;
20749;SDS011;10535;50.664;4.564;2022-10-28T17:17:47;10.57;;;3.47;;
20749;SDS011;10535;50.664;4.564;2022-10-28T17:20:13;17.97;;;3.80;;
20749;SDS011;10535;50.664;4.564;2022-10-28T17:22:39;14.50;;;4.13;;
20749;SDS011;10535;50.664;4.564;2022-10-28T17:25:05;16.60;;;4.07;;
20749;SDS011;10535;50.664;4.564;2022-10-28T17:27:32;8.67;;;3.60;;
20749;SDS011;10535;50.664;4.564;2022-10-28T17:29:57;13.87;;;4.07;;
20749;SDS011;10535;50.664;4.564;2022-10-28T17:32:23;10.77;;;3.43;;
20749;SDS011;10535;50.664;4.564;2022-10-28T17:34:49;11.57;;;3.80;;
20749;SDS011;10535;50.664;4.564;2022-10-28T17:37:14;12.90;;;3.83;;
20749;SDS011;10535;50.664;4.564;2022-10-28T17:39:40;9.77;;;3.57;;
20749;SDS011;10535;50.664;4.564;2022-10-28T17:42:06;15.17;;;3.90;;
20749;SDS011;10535;50.664;4.564;2022-10-28T17:44:32;8.50;;;3.80;;
20749;SDS011;10535;50.664;4.564;2022-10-28T17:46:58;8.20;;;3.90;;
20749;SDS011;10535;50.664;4.564;2022-10-28T17:49:24;11.97;;;3.93;;
20749;SDS011;10535;50.664;4.564;2022-10-28T17:51:50;8.63;;;3.47;;
20749;SDS011;10535;50.664;4.564;2022-10-28T17:54:16;11.30;;;3.87;;
20749;SDS011;10535;50.664;4.564;2022-10-28T17:56:41;7.57;;;3.63;;